CPA621 VHHH-WMKP
Flight info
| Callsign | CPA621 |
|---|---|
| Flight time | 3h 4m |
| Altitude | 38000 |
| Route | PECAN V12 EPDOS L642 EPKAL/K0907F390 L642 EGEMU/K0900F400 L642 CN M765 BITOD/N0487F400 M765 VKB W546 BETNU BETNU1F |
| Aircraft | A359/H-SDE2E3GHIJ3J4J5LM1ORWXY/LB1D1 |
Departure
| Time | 2026-04-24 07:49 |
|---|---|
| Airport | Hong Kong International Airport (VHHH) |
Arrival
| Time | 2026-04-24 10:53 |
|---|---|
| Airport | Penang International Airport (WMKP) |
| Time | Latitude | Longitude | Altitude | Speed | Heading |
|---|---|---|---|---|---|
| 2026-04-24 07:23 | 22.31686 | 113.93303 | 38 ft | 0 kts | 71° |
| 2026-04-24 07:30 | 22.31684 | 113.93298 | 38 ft | 3 kts | 71° |
| 2026-04-24 07:31 | 22.31676 | 113.93271 | 38 ft | 4 kts | 71° |
| 2026-04-24 07:31 | 22.31669 | 113.93249 | 38 ft | 4 kts | 72° |
| 2026-04-24 07:31 | 22.31661 | 113.93222 | 38 ft | 4 kts | 70° |
| 2026-04-24 07:31 | 22.31649 | 113.93196 | 37 ft | 4 kts | 43° |
| 2026-04-24 07:32 | 22.31633 | 113.93183 | 38 ft | 4 kts | 34° |
| 2026-04-24 07:32 | 22.31611 | 113.93166 | 38 ft | 4 kts | 50° |
| 2026-04-24 07:32 | 22.31600 | 113.93146 | 38 ft | 3 kts | 70° |
| 2026-04-24 07:32 | 22.31591 | 113.93119 | 38 ft | 3 kts | 70° |
| 2026-04-24 07:33 | 22.31590 | 113.93116 | 38 ft | 0 kts | 70° |
| 2026-04-24 07:39 | 22.31592 | 113.93121 | 38 ft | 6 kts | 69° |
| 2026-04-24 07:39 | 22.31621 | 113.93173 | 37 ft | 8 kts | 45° |
| 2026-04-24 07:39 | 22.31673 | 113.93193 | 38 ft | 8 kts | 359° |
| 2026-04-24 07:40 | 22.31723 | 113.93174 | 38 ft | 8 kts | 336° |
| 2026-04-24 07:40 | 22.31773 | 113.93150 | 38 ft | 8 kts | 336° |
| 2026-04-24 07:40 | 22.31826 | 113.93130 | 38 ft | 8 kts | 345° |
| 2026-04-24 07:40 | 22.31868 | 113.93100 | 38 ft | 7 kts | 298° |
| 2026-04-24 07:41 | 22.31859 | 113.93040 | 38 ft | 15 kts | 252° |
| 2026-04-24 07:41 | 22.31842 | 113.92950 | 38 ft | 10 kts | 284° |
| 2026-04-24 07:41 | 22.31887 | 113.92898 | 38 ft | 9 kts | 307° |
| 2026-04-24 07:41 | 22.31885 | 113.92824 | 38 ft | 16 kts | 250° |
| 2026-04-24 07:42 | 22.31847 | 113.92712 | 36 ft | 16 kts | 251° |
| 2026-04-24 07:42 | 22.31811 | 113.92600 | 38 ft | 16 kts | 251° |
| 2026-04-24 07:42 | 22.31775 | 113.92488 | 38 ft | 17 kts | 251° |
| 2026-04-24 07:42 | 22.31731 | 113.92349 | 37 ft | 20 kts | 251° |
| 2026-04-24 07:43 | 22.31686 | 113.92211 | 38 ft | 19 kts | 251° |
| 2026-04-24 07:43 | 22.31643 | 113.92075 | 37 ft | 19 kts | 251° |
| 2026-04-24 07:43 | 22.31600 | 113.91941 | 38 ft | 19 kts | 251° |
| 2026-04-24 07:43 | 22.31554 | 113.91805 | 38 ft | 25 kts | 250° |
| 2026-04-24 07:44 | 22.31494 | 113.91611 | 38 ft | 26 kts | 251° |
| 2026-04-24 07:44 | 22.31436 | 113.91430 | 38 ft | 25 kts | 251° |
| 2026-04-24 07:44 | 22.31379 | 113.91254 | 38 ft | 25 kts | 250° |
| 2026-04-24 07:44 | 22.31324 | 113.91082 | 38 ft | 24 kts | 251° |
| 2026-04-24 07:45 | 22.31268 | 113.90915 | 37 ft | 23 kts | 250° |
| 2026-04-24 07:45 | 22.31215 | 113.90752 | 38 ft | 23 kts | 253° |
| 2026-04-24 07:45 | 22.31165 | 113.90593 | 38 ft | 22 kts | 251° |
| 2026-04-24 07:45 | 22.31114 | 113.90436 | 38 ft | 22 kts | 250° |
| 2026-04-24 07:46 | 22.31065 | 113.90284 | 38 ft | 21 kts | 251° |
| 2026-04-24 07:46 | 22.31018 | 113.90135 | 38 ft | 21 kts | 251° |
| 2026-04-24 07:46 | 22.30965 | 113.89997 | 38 ft | 15 kts | 252° |
| 2026-04-24 07:46 | 22.30936 | 113.89890 | 38 ft | 12 kts | 253° |
| 2026-04-24 07:47 | 22.30931 | 113.89842 | 38 ft | 9 kts | 278° |
| 2026-04-24 07:47 | 22.30971 | 113.89801 | 38 ft | 8 kts | 340° |
| 2026-04-24 07:47 | 22.31035 | 113.89776 | 36 ft | 11 kts | 340° |
| 2026-04-24 07:47 | 22.31096 | 113.89815 | 36 ft | 9 kts | 70° |
| 2026-04-24 07:48 | 22.31119 | 113.89885 | 36 ft | 22 kts | 70° |
| 2026-04-24 07:48 | 22.31224 | 113.90209 | 37 ft | 77 kts | 70° |
| 2026-04-24 07:48 | 22.31474 | 113.90965 | 38 ft | 135 kts | 69° |
| 2026-04-24 07:48 | 22.31834 | 113.92071 | 269 ft | 161 kts | 69° |
| 2026-04-24 07:49 | 22.32159 | 113.93194 | 1000 ft | 160 kts | 68° |
| 2026-04-24 07:49 | 22.32537 | 113.94381 | 1432 ft | 174 kts | 66° |
| 2026-04-24 07:49 | 22.32974 | 113.95664 | 1790 ft | 192 kts | 67° |
| 2026-04-24 07:49 | 22.33407 | 113.97125 | 2050 ft | 217 kts | 71° |
| 2026-04-24 07:50 | 22.33788 | 113.98811 | 2307 ft | 244 kts | 78° |
| 2026-04-24 07:50 | 22.34058 | 114.00627 | 3090 ft | 241 kts | 80° |
| 2026-04-24 07:50 | 22.34301 | 114.02371 | 4116 ft | 230 kts | 81° |
| 2026-04-24 07:50 | 22.34357 | 114.04084 | 4895 ft | 229 kts | 96° |
| 2026-04-24 07:51 | 22.33923 | 114.05720 | 5665 ft | 227 kts | 116° |
| 2026-04-24 07:51 | 22.32999 | 114.07075 | 6500 ft | 223 kts | 135° |
| 2026-04-24 07:51 | 22.31728 | 114.08071 | 7117 ft | 233 kts | 151° |
| 2026-04-24 07:51 | 22.30171 | 114.08666 | 7705 ft | 242 kts | 168° |
| 2026-04-24 07:52 | 22.28479 | 114.08806 | 8415 ft | 247 kts | 180° |
| 2026-04-24 07:52 | 22.26708 | 114.08778 | 8853 ft | 263 kts | 182° |
| 2026-04-24 07:52 | 22.24842 | 114.08732 | 9387 ft | 273 kts | 183° |
| 2026-04-24 07:52 | 22.22925 | 114.08695 | 10076 ft | 277 kts | 183° |
| 2026-04-24 07:53 | 22.20949 | 114.08666 | 10524 ft | 293 kts | 184° |
| 2026-04-24 07:53 | 22.18853 | 114.08637 | 10859 ft | 310 kts | 184° |
| 2026-04-24 07:53 | 22.16641 | 114.08611 | 11165 ft | 326 kts | 184° |
| 2026-04-24 07:53 | 22.14324 | 114.08563 | 11461 ft | 340 kts | 186° |
| 2026-04-24 07:54 | 22.11922 | 114.08382 | 11805 ft | 352 kts | 188° |
| 2026-04-24 07:54 | 22.09462 | 114.08177 | 12364 ft | 356 kts | 188° |
| 2026-04-24 07:54 | 22.06971 | 114.07981 | 12925 ft | 361 kts | 187° |
| 2026-04-24 07:54 | 22.04445 | 114.07791 | 13451 ft | 367 kts | 187° |
| 2026-04-24 07:55 | 22.01883 | 114.07603 | 13971 ft | 372 kts | 187° |
| 2026-04-24 07:55 | 21.99286 | 114.07413 | 14502 ft | 376 kts | 187° |
| 2026-04-24 07:55 | 21.96667 | 114.07225 | 15003 ft | 379 kts | 187° |
| 2026-04-24 07:55 | 21.94017 | 114.07036 | 15446 ft | 384 kts | 187° |
| 2026-04-24 07:56 | 21.91336 | 114.06846 | 15942 ft | 387 kts | 186° |
| 2026-04-24 07:56 | 21.88638 | 114.06654 | 16407 ft | 391 kts | 186° |
| 2026-04-24 07:56 | 21.85907 | 114.06460 | 16847 ft | 395 kts | 186° |
| 2026-04-24 07:56 | 21.83147 | 114.06265 | 17289 ft | 399 kts | 186° |
| 2026-04-24 07:57 | 21.80365 | 114.06068 | 17734 ft | 402 kts | 186° |
| 2026-04-24 07:57 | 21.77561 | 114.05869 | 18151 ft | 406 kts | 186° |
| 2026-04-24 07:57 | 21.74732 | 114.05669 | 18576 ft | 409 kts | 186° |
| 2026-04-24 07:57 | 21.71890 | 114.05467 | 19036 ft | 411 kts | 186° |
| 2026-04-24 07:58 | 21.69035 | 114.05267 | 19496 ft | 412 kts | 186° |
| 2026-04-24 07:58 | 21.66169 | 114.05064 | 19926 ft | 414 kts | 186° |
| 2026-04-24 07:58 | 21.63329 | 114.04863 | 20334 ft | 416 kts | 186° |
| 2026-04-24 07:58 | 21.60398 | 114.04656 | 20754 ft | 417 kts | 186° |
| 2026-04-24 07:59 | 21.57531 | 114.04453 | 21148 ft | 419 kts | 187° |
| 2026-04-24 07:59 | 21.54611 | 114.04247 | 21560 ft | 421 kts | 187° |
| 2026-04-24 07:59 | 21.51636 | 114.04036 | 21954 ft | 424 kts | 187° |
| 2026-04-24 07:59 | 21.48687 | 114.03828 | 22365 ft | 426 kts | 187° |
| 2026-04-24 08:00 | 21.45723 | 114.03619 | 22735 ft | 428 kts | 187° |
| 2026-04-24 08:00 | 21.42743 | 114.03411 | 23100 ft | 431 kts | 187° |
| 2026-04-24 08:00 | 21.39785 | 114.03211 | 23459 ft | 433 kts | 187° |
| 2026-04-24 08:00 | 21.36731 | 114.03005 | 23826 ft | 435 kts | 187° |
| 2026-04-24 08:01 | 21.33702 | 114.02802 | 24177 ft | 437 kts | 187° |
| 2026-04-24 08:01 | 21.30701 | 114.02602 | 24484 ft | 440 kts | 187° |
| 2026-04-24 08:01 | 21.27631 | 114.02397 | 24801 ft | 443 kts | 187° |
| 2026-04-24 08:01 | 21.24541 | 114.02194 | 25155 ft | 446 kts | 187° |
| 2026-04-24 08:02 | 21.21395 | 114.01985 | 25545 ft | 448 kts | 187° |
| 2026-04-24 08:02 | 21.18269 | 114.01775 | 25891 ft | 452 kts | 188° |
| 2026-04-24 08:02 | 21.15166 | 114.01567 | 26270 ft | 455 kts | 188° |
| 2026-04-24 08:02 | 21.11955 | 114.01351 | 26635 ft | 458 kts | 188° |
| 2026-04-24 08:03 | 21.08811 | 114.01141 | 26999 ft | 461 kts | 188° |
| 2026-04-24 08:03 | 21.05600 | 114.00926 | 27362 ft | 464 kts | 188° |
| 2026-04-24 08:03 | 21.02369 | 114.00710 | 27758 ft | 466 kts | 188° |
| 2026-04-24 08:03 | 20.99075 | 114.00490 | 28109 ft | 470 kts | 188° |
| 2026-04-24 08:04 | 20.95843 | 114.00266 | 28448 ft | 472 kts | 189° |
| 2026-04-24 08:04 | 20.92596 | 113.99782 | 28809 ft | 471 kts | 195° |
| 2026-04-24 08:04 | 20.89374 | 113.99118 | 29122 ft | 474 kts | 196° |
| 2026-04-24 08:04 | 20.86138 | 113.98395 | 29419 ft | 476 kts | 197° |
| 2026-04-24 08:05 | 20.82890 | 113.97640 | 29765 ft | 478 kts | 197° |
| 2026-04-24 08:05 | 20.79592 | 113.96860 | 30089 ft | 480 kts | 197° |
| 2026-04-24 08:05 | 20.76362 | 113.96096 | 30382 ft | 483 kts | 197° |
| 2026-04-24 08:05 | 20.73068 | 113.95319 | 30606 ft | 486 kts | 197° |
| 2026-04-24 08:06 | 20.69755 | 113.94542 | 30897 ft | 488 kts | 197° |
| 2026-04-24 08:06 | 20.66429 | 113.93766 | 31183 ft | 490 kts | 197° |
| 2026-04-24 08:06 | 20.63085 | 113.92988 | 31410 ft | 493 kts | 197° |
| 2026-04-24 08:06 | 20.59680 | 113.92198 | 31662 ft | 495 kts | 197° |
| 2026-04-24 08:07 | 20.56313 | 113.91417 | 32012 ft | 495 kts | 197° |
| 2026-04-24 08:07 | 20.52954 | 113.90640 | 32370 ft | 494 kts | 197° |
| 2026-04-24 08:07 | 20.49601 | 113.89864 | 32712 ft | 493 kts | 197° |
| 2026-04-24 08:07 | 20.46295 | 113.89099 | 33036 ft | 493 kts | 197° |
| 2026-04-24 08:08 | 20.42946 | 113.88323 | 33350 ft | 493 kts | 197° |
| 2026-04-24 08:08 | 20.39600 | 113.87547 | 33665 ft | 492 kts | 197° |
| 2026-04-24 08:08 | 20.36260 | 113.86774 | 33992 ft | 491 kts | 197° |
| 2026-04-24 08:09 | 20.29585 | 113.85229 | 34592 ft | 490 kts | 197° |
| 2026-04-24 08:09 | 20.26214 | 113.84450 | 34899 ft | 489 kts | 197° |
| 2026-04-24 08:09 | 20.22892 | 113.83682 | 35185 ft | 488 kts | 197° |
| 2026-04-24 08:09 | 20.19576 | 113.82918 | 35462 ft | 487 kts | 197° |
| 2026-04-24 08:10 | 20.16267 | 113.82155 | 35748 ft | 486 kts | 198° |
| 2026-04-24 08:10 | 20.13005 | 113.81401 | 36031 ft | 486 kts | 198° |
| 2026-04-24 08:10 | 20.09704 | 113.80639 | 36291 ft | 485 kts | 198° |
| 2026-04-24 08:10 | 20.06408 | 113.79878 | 36534 ft | 485 kts | 198° |
| 2026-04-24 08:11 | 20.03069 | 113.79106 | 36783 ft | 484 kts | 198° |
| 2026-04-24 08:11 | 19.99833 | 113.78361 | 37119 ft | 480 kts | 198° |
| 2026-04-24 08:11 | 19.96539 | 113.77605 | 37475 ft | 476 kts | 198° |
| 2026-04-24 08:11 | 19.93312 | 113.76863 | 37764 ft | 474 kts | 198° |
| 2026-04-24 08:12 | 19.90092 | 113.76121 | 37928 ft | 474 kts | 198° |
| 2026-04-24 08:12 | 19.83673 | 113.74639 | 37955 ft | 475 kts | 198° |
| 2026-04-24 08:13 | 19.77211 | 113.73153 | 37952 ft | 475 kts | 198° |
| 2026-04-24 08:13 | 19.70752 | 113.71669 | 37947 ft | 475 kts | 198° |
| 2026-04-24 08:14 | 19.64289 | 113.70187 | 37959 ft | 475 kts | 198° |
| 2026-04-24 08:14 | 19.57825 | 113.68705 | 37950 ft | 475 kts | 198° |
| 2026-04-24 08:15 | 19.51361 | 113.67226 | 37952 ft | 476 kts | 198° |
| 2026-04-24 08:15 | 19.44882 | 113.65743 | 37950 ft | 477 kts | 198° |
| 2026-04-24 08:16 | 19.38394 | 113.64259 | 37947 ft | 477 kts | 197° |
| 2026-04-24 08:16 | 19.31902 | 113.62774 | 37960 ft | 477 kts | 197° |
| 2026-04-24 08:17 | 19.25407 | 113.61292 | 37951 ft | 477 kts | 197° |
| 2026-04-24 08:17 | 19.18911 | 113.59811 | 37956 ft | 478 kts | 197° |
| 2026-04-24 08:18 | 19.12408 | 113.58331 | 37950 ft | 478 kts | 197° |
| 2026-04-24 08:18 | 19.05901 | 113.56847 | 37954 ft | 478 kts | 197° |
| 2026-04-24 08:19 | 18.99391 | 113.55364 | 37952 ft | 479 kts | 197° |
| 2026-04-24 08:19 | 18.92780 | 113.54244 | 37957 ft | 483 kts | 191° |
| 2026-04-24 08:20 | 18.86096 | 113.53413 | 37946 ft | 484 kts | 191° |
| 2026-04-24 08:20 | 18.79411 | 113.52545 | 37963 ft | 484 kts | 192° |
| 2026-04-24 08:21 | 18.72731 | 113.51612 | 37947 ft | 484 kts | 192° |
| 2026-04-24 08:21 | 18.66050 | 113.50655 | 37953 ft | 485 kts | 192° |
| 2026-04-24 08:22 | 18.59384 | 113.49581 | 37959 ft | 482 kts | 197° |
| 2026-04-24 08:22 | 18.53213 | 113.47069 | 37956 ft | 472 kts | 214° |
| 2026-04-24 08:23 | 18.47791 | 113.43212 | 37958 ft | 470 kts | 219° |
| 2026-04-24 08:23 | 18.42532 | 113.39123 | 37945 ft | 470 kts | 220° |
| 2026-04-24 08:24 | 18.37289 | 113.35016 | 37944 ft | 470 kts | 220° |
| 2026-04-24 08:24 | 18.32018 | 113.30933 | 37945 ft | 470 kts | 219° |
| 2026-04-24 08:25 | 18.26735 | 113.26867 | 37959 ft | 471 kts | 219° |
| 2026-04-24 08:25 | 18.21442 | 113.22802 | 37948 ft | 471 kts | 219° |
| 2026-04-24 08:26 | 18.16155 | 113.18745 | 37950 ft | 471 kts | 219° |
| 2026-04-24 08:26 | 18.10896 | 113.14708 | 37953 ft | 471 kts | 219° |
| 2026-04-24 08:27 | 18.05604 | 113.10647 | 37957 ft | 471 kts | 219° |
| 2026-04-24 08:27 | 18.00317 | 113.06592 | 37959 ft | 470 kts | 219° |
| 2026-04-24 08:28 | 17.95025 | 113.02534 | 37952 ft | 473 kts | 219° |
| 2026-04-24 08:28 | 17.89684 | 112.98448 | 37952 ft | 476 kts | 219° |
| 2026-04-24 08:29 | 17.84342 | 112.94362 | 38243 ft | 475 kts | 219° |
| 2026-04-24 08:29 | 17.81720 | 112.92321 | 38440 ft | 474 kts | 219° |
| 2026-04-24 08:29 | 17.79083 | 112.90243 | 38619 ft | 473 kts | 220° |
| 2026-04-24 08:29 | 17.76455 | 112.88162 | 38784 ft | 473 kts | 220° |
| 2026-04-24 08:30 | 17.73831 | 112.86084 | 38918 ft | 474 kts | 220° |
| 2026-04-24 08:30 | 17.68551 | 112.81918 | 38952 ft | 475 kts | 220° |
| 2026-04-24 08:31 | 17.64122 | 112.78439 | 38952 ft | 475 kts | 220° |
| 2026-04-24 08:31 | 17.58869 | 112.74319 | 38952 ft | 474 kts | 219° |
| 2026-04-24 08:32 | 17.53587 | 112.70179 | 38944 ft | 474 kts | 219° |
| 2026-04-24 08:32 | 17.48302 | 112.66038 | 38946 ft | 474 kts | 219° |
| 2026-04-24 08:33 | 17.43015 | 112.61899 | 38943 ft | 475 kts | 220° |
| 2026-04-24 08:33 | 17.37719 | 112.57757 | 38937 ft | 475 kts | 219° |
| 2026-04-24 08:34 | 17.32424 | 112.53618 | 38898 ft | 475 kts | 219° |
| 2026-04-24 08:34 | 17.27124 | 112.49476 | 38895 ft | 476 kts | 219° |
| 2026-04-24 08:35 | 17.21816 | 112.45332 | 38890 ft | 476 kts | 219° |
| 2026-04-24 08:35 | 17.16501 | 112.41190 | 38888 ft | 477 kts | 219° |
| 2026-04-24 08:36 | 17.11175 | 112.37042 | 38888 ft | 478 kts | 219° |
| 2026-04-24 08:36 | 17.05846 | 112.32889 | 38886 ft | 478 kts | 219° |
| 2026-04-24 08:37 | 17.00505 | 112.28732 | 38965 ft | 479 kts | 219° |
| 2026-04-24 08:37 | 16.97829 | 112.26664 | 39103 ft | 479 kts | 219° |
| 2026-04-24 08:37 | 16.95138 | 112.24616 | 39263 ft | 478 kts | 218° |
| 2026-04-24 08:37 | 16.92442 | 112.22576 | 39388 ft | 478 kts | 218° |
| 2026-04-24 08:38 | 16.89747 | 112.20543 | 39514 ft | 478 kts | 218° |
| 2026-04-24 08:38 | 16.87015 | 112.18480 | 39628 ft | 478 kts | 218° |
| 2026-04-24 08:38 | 16.84318 | 112.16442 | 39752 ft | 478 kts | 218° |
| 2026-04-24 08:38 | 16.81623 | 112.14403 | 39861 ft | 479 kts | 218° |
| 2026-04-24 08:39 | 16.78922 | 112.12359 | 39888 ft | 480 kts | 218° |
| 2026-04-24 08:39 | 16.73554 | 112.08298 | 39888 ft | 480 kts | 218° |
| 2026-04-24 08:40 | 16.68149 | 112.04208 | 39888 ft | 480 kts | 218° |
| 2026-04-24 08:40 | 16.62732 | 112.00112 | 39888 ft | 481 kts | 218° |
| 2026-04-24 08:41 | 16.57311 | 111.96017 | 39888 ft | 481 kts | 218° |
| 2026-04-24 08:41 | 16.51884 | 111.91923 | 39887 ft | 482 kts | 218° |
| 2026-04-24 08:42 | 16.46453 | 111.87826 | 39888 ft | 482 kts | 218° |
| 2026-04-24 08:42 | 16.41015 | 111.83727 | 39888 ft | 483 kts | 218° |
| 2026-04-24 08:43 | 16.35571 | 111.79628 | 39888 ft | 483 kts | 218° |
| 2026-04-24 08:43 | 16.30121 | 111.75526 | 39888 ft | 483 kts | 218° |
| 2026-04-24 08:44 | 16.24669 | 111.71427 | 39887 ft | 484 kts | 217° |
| 2026-04-24 08:44 | 16.19210 | 111.67326 | 39878 ft | 484 kts | 218° |
| 2026-04-24 08:45 | 16.13753 | 111.63225 | 39878 ft | 484 kts | 218° |
| 2026-04-24 08:45 | 16.08294 | 111.59128 | 39878 ft | 484 kts | 218° |
| 2026-04-24 08:46 | 16.02838 | 111.55036 | 39879 ft | 484 kts | 217° |
| 2026-04-24 08:46 | 15.97382 | 111.50947 | 39878 ft | 484 kts | 217° |
| 2026-04-24 08:47 | 15.91913 | 111.46851 | 39878 ft | 485 kts | 217° |
| 2026-04-24 08:47 | 15.86439 | 111.42753 | 39878 ft | 485 kts | 217° |
| 2026-04-24 08:48 | 15.80963 | 111.38657 | 39878 ft | 485 kts | 217° |
| 2026-04-24 08:48 | 15.75487 | 111.34564 | 39879 ft | 485 kts | 217° |
| 2026-04-24 08:49 | 15.70008 | 111.30473 | 39862 ft | 485 kts | 217° |
| 2026-04-24 08:49 | 15.64529 | 111.26385 | 39860 ft | 485 kts | 217° |
| 2026-04-24 08:50 | 15.59052 | 111.22299 | 39859 ft | 485 kts | 217° |
| 2026-04-24 08:50 | 15.53571 | 111.18212 | 39860 ft | 485 kts | 217° |
| 2026-04-24 08:51 | 15.48091 | 111.14131 | 39860 ft | 485 kts | 217° |
| 2026-04-24 08:51 | 15.42606 | 111.10042 | 39859 ft | 485 kts | 217° |
| 2026-04-24 08:52 | 15.37118 | 111.05960 | 39861 ft | 486 kts | 217° |
| 2026-04-24 08:52 | 15.31640 | 111.01859 | 39860 ft | 486 kts | 217° |
| 2026-04-24 08:53 | 15.26203 | 110.97709 | 39859 ft | 486 kts | 217° |
| 2026-04-24 08:53 | 15.20764 | 110.93560 | 39860 ft | 486 kts | 217° |
| 2026-04-24 08:54 | 15.15313 | 110.89417 | 39860 ft | 486 kts | 217° |
| 2026-04-24 08:54 | 15.09862 | 110.85281 | 39860 ft | 486 kts | 217° |
| 2026-04-24 08:55 | 15.04406 | 110.81146 | 39860 ft | 486 kts | 217° |
| 2026-04-24 08:55 | 14.98949 | 110.77012 | 39860 ft | 486 kts | 217° |
| 2026-04-24 08:56 | 14.93488 | 110.72878 | 39852 ft | 487 kts | 217° |
| 2026-04-24 08:56 | 14.88021 | 110.68741 | 39852 ft | 487 kts | 217° |
| 2026-04-24 08:57 | 14.82552 | 110.64608 | 39849 ft | 487 kts | 217° |
| 2026-04-24 08:57 | 14.77081 | 110.60476 | 39856 ft | 487 kts | 217° |
| 2026-04-24 08:58 | 14.71607 | 110.56343 | 39860 ft | 488 kts | 217° |
| 2026-04-24 08:58 | 14.66124 | 110.52203 | 39859 ft | 488 kts | 217° |
| 2026-04-24 08:59 | 14.60642 | 110.48066 | 39860 ft | 488 kts | 217° |
| 2026-04-24 08:59 | 14.55187 | 110.43957 | 39865 ft | 488 kts | 217° |
| 2026-04-24 09:00 | 14.49653 | 110.39788 | 39869 ft | 489 kts | 217° |
| 2026-04-24 09:00 | 14.44190 | 110.35675 | 39869 ft | 489 kts | 217° |
| 2026-04-24 09:01 | 14.38687 | 110.31543 | 39870 ft | 490 kts | 217° |
| 2026-04-24 09:01 | 14.33176 | 110.27401 | 39869 ft | 490 kts | 217° |
| 2026-04-24 09:02 | 14.27669 | 110.23258 | 39869 ft | 490 kts | 217° |
| 2026-04-24 09:02 | 14.22162 | 110.19117 | 39870 ft | 490 kts | 216° |
| 2026-04-24 09:03 | 14.16652 | 110.14984 | 39868 ft | 490 kts | 216° |
| 2026-04-24 09:03 | 14.11138 | 110.10849 | 39869 ft | 490 kts | 216° |
| 2026-04-24 09:04 | 14.05625 | 110.06717 | 39869 ft | 490 kts | 216° |
| 2026-04-24 09:04 | 14.00111 | 110.02585 | 39870 ft | 490 kts | 216° |
| 2026-04-24 09:05 | 13.94577 | 109.98487 | 39869 ft | 490 kts | 214° |
| 2026-04-24 09:05 | 13.88803 | 109.94743 | 39869 ft | 490 kts | 211° |
| 2026-04-24 09:06 | 13.82968 | 109.91118 | 39868 ft | 490 kts | 212° |
| 2026-04-24 09:06 | 13.77149 | 109.87442 | 39870 ft | 491 kts | 212° |
| 2026-04-24 09:07 | 13.71354 | 109.83732 | 39860 ft | 491 kts | 212° |
| 2026-04-24 09:07 | 13.62670 | 109.78147 | 39859 ft | 491 kts | 212° |
| 2026-04-24 09:08 | 13.56884 | 109.74431 | 39869 ft | 490 kts | 212° |
| 2026-04-24 09:08 | 13.51096 | 109.70716 | 39870 ft | 490 kts | 212° |
| 2026-04-24 09:09 | 13.45313 | 109.67010 | 39869 ft | 490 kts | 212° |
| 2026-04-24 09:09 | 13.39521 | 109.63300 | 39870 ft | 490 kts | 212° |
| 2026-04-24 09:10 | 13.33732 | 109.59594 | 39870 ft | 491 kts | 212° |
| 2026-04-24 09:10 | 13.27941 | 109.55887 | 39862 ft | 491 kts | 212° |
| 2026-04-24 09:11 | 13.22144 | 109.52180 | 39859 ft | 491 kts | 212° |
| 2026-04-24 09:11 | 13.16342 | 109.48472 | 39860 ft | 491 kts | 212° |
| 2026-04-24 09:12 | 13.10542 | 109.44767 | 39859 ft | 491 kts | 212° |
| 2026-04-24 09:12 | 13.04744 | 109.41061 | 39860 ft | 491 kts | 212° |
| 2026-04-24 09:13 | 12.99877 | 109.37956 | 39861 ft | 492 kts | 212° |
| 2026-04-24 09:13 | 12.94074 | 109.34258 | 39861 ft | 491 kts | 212° |
| 2026-04-24 09:14 | 12.88306 | 109.30581 | 39860 ft | 491 kts | 212° |
| 2026-04-24 09:14 | 12.82506 | 109.26884 | 39861 ft | 491 kts | 212° |
| 2026-04-24 09:15 | 12.76699 | 109.23186 | 39858 ft | 492 kts | 212° |
| 2026-04-24 09:15 | 12.70887 | 109.19488 | 39854 ft | 492 kts | 212° |
| 2026-04-24 09:16 | 12.65070 | 109.15789 | 39860 ft | 492 kts | 212° |
| 2026-04-24 09:16 | 12.59257 | 109.12101 | 39861 ft | 492 kts | 212° |
| 2026-04-24 09:17 | 12.53445 | 109.08410 | 39860 ft | 492 kts | 212° |
| 2026-04-24 09:17 | 12.47627 | 109.04718 | 39860 ft | 492 kts | 212° |
| 2026-04-24 09:18 | 12.41816 | 109.01032 | 39862 ft | 492 kts | 212° |
| 2026-04-24 09:18 | 12.35998 | 108.97346 | 39859 ft | 492 kts | 212° |
| 2026-04-24 09:19 | 12.30182 | 108.93661 | 39860 ft | 492 kts | 212° |
| 2026-04-24 09:19 | 12.24360 | 108.89974 | 39859 ft | 492 kts | 211° |
| 2026-04-24 09:20 | 12.17556 | 108.85669 | 39860 ft | 493 kts | 211° |
| 2026-04-24 09:20 | 12.12704 | 108.82601 | 39861 ft | 493 kts | 211° |
| 2026-04-24 09:21 | 12.06874 | 108.78915 | 39860 ft | 493 kts | 211° |
| 2026-04-24 09:21 | 12.01047 | 108.75234 | 39856 ft | 493 kts | 211° |
| 2026-04-24 09:22 | 11.95221 | 108.71557 | 39851 ft | 492 kts | 211° |
| 2026-04-24 09:22 | 11.89391 | 108.67879 | 39852 ft | 493 kts | 211° |
| 2026-04-24 09:23 | 11.83563 | 108.64203 | 39854 ft | 493 kts | 211° |
| 2026-04-24 09:23 | 11.77742 | 108.60535 | 39851 ft | 492 kts | 211° |
| 2026-04-24 09:24 | 11.71904 | 108.56856 | 39848 ft | 492 kts | 211° |
| 2026-04-24 09:24 | 11.66072 | 108.53181 | 39851 ft | 492 kts | 211° |
| 2026-04-24 09:25 | 11.60239 | 108.49511 | 39852 ft | 492 kts | 211° |
| 2026-04-24 09:25 | 11.54408 | 108.45844 | 39853 ft | 492 kts | 211° |
| 2026-04-24 09:26 | 11.48576 | 108.42176 | 39848 ft | 492 kts | 211° |
| 2026-04-24 09:26 | 11.42750 | 108.38514 | 39845 ft | 492 kts | 211° |
| 2026-04-24 09:27 | 11.36930 | 108.34858 | 39844 ft | 492 kts | 211° |
| 2026-04-24 09:27 | 11.31111 | 108.31202 | 39838 ft | 491 kts | 211° |
| 2026-04-24 09:28 | 11.25289 | 108.27549 | 39831 ft | 491 kts | 211° |
| 2026-04-24 09:28 | 11.19468 | 108.23899 | 39835 ft | 491 kts | 211° |
| 2026-04-24 09:29 | 11.13644 | 108.20251 | 39825 ft | 491 kts | 211° |
| 2026-04-24 09:29 | 11.07831 | 108.16609 | 39839 ft | 491 kts | 211° |
| 2026-04-24 09:30 | 11.01034 | 108.12352 | 39822 ft | 490 kts | 211° |
| 2026-04-24 09:30 | 10.96206 | 108.09330 | 39824 ft | 490 kts | 211° |
| 2026-04-24 09:31 | 10.90406 | 108.05687 | 39822 ft | 490 kts | 212° |
| 2026-04-24 09:31 | 10.84698 | 108.01897 | 39816 ft | 490 kts | 213° |
| 2026-04-24 09:32 | 10.79018 | 107.98068 | 39827 ft | 490 kts | 213° |
| 2026-04-24 09:32 | 10.73321 | 107.94258 | 39813 ft | 490 kts | 212° |
| 2026-04-24 09:33 | 10.67613 | 107.90468 | 39813 ft | 490 kts | 212° |
| 2026-04-24 09:33 | 10.61900 | 107.86681 | 39812 ft | 490 kts | 212° |
| 2026-04-24 09:34 | 10.56191 | 107.82896 | 39815 ft | 490 kts | 212° |
| 2026-04-24 09:34 | 10.50485 | 107.79115 | 39811 ft | 490 kts | 212° |
| 2026-04-24 09:35 | 10.44780 | 107.75338 | 39813 ft | 489 kts | 212° |
| 2026-04-24 09:35 | 10.39075 | 107.71576 | 39812 ft | 489 kts | 212° |
| 2026-04-24 09:36 | 10.33365 | 107.67813 | 39810 ft | 489 kts | 212° |
| 2026-04-24 09:36 | 10.27652 | 107.64048 | 39812 ft | 489 kts | 212° |
| 2026-04-24 09:37 | 10.21944 | 107.60286 | 39807 ft | 489 kts | 212° |
| 2026-04-24 09:37 | 10.16236 | 107.56530 | 39804 ft | 489 kts | 212° |
| 2026-04-24 09:38 | 10.10523 | 107.52775 | 39804 ft | 489 kts | 212° |
| 2026-04-24 09:38 | 10.04857 | 107.49037 | 39813 ft | 489 kts | 212° |
| 2026-04-24 09:39 | 9.99142 | 107.45262 | 39803 ft | 489 kts | 212° |
| 2026-04-24 09:39 | 9.93480 | 107.41529 | 39804 ft | 488 kts | 212° |
| 2026-04-24 09:40 | 9.87747 | 107.37750 | 39804 ft | 488 kts | 212° |
| 2026-04-24 09:40 | 9.82086 | 107.34022 | 39804 ft | 488 kts | 212° |
| 2026-04-24 09:41 | 9.76394 | 107.30275 | 39804 ft | 488 kts | 213° |
| 2026-04-24 09:41 | 9.70700 | 107.26527 | 39805 ft | 488 kts | 212° |
| 2026-04-24 09:42 | 9.65007 | 107.22781 | 39804 ft | 488 kts | 212° |
| 2026-04-24 09:42 | 9.59306 | 107.19035 | 39804 ft | 488 kts | 212° |
| 2026-04-24 09:43 | 9.53610 | 107.15294 | 39804 ft | 488 kts | 213° |
| 2026-04-24 09:43 | 9.47920 | 107.11554 | 39804 ft | 488 kts | 213° |
| 2026-04-24 09:44 | 9.42231 | 107.07817 | 39805 ft | 487 kts | 213° |
| 2026-04-24 09:44 | 9.36537 | 107.04078 | 39804 ft | 487 kts | 213° |
| 2026-04-24 09:45 | 9.30851 | 107.00347 | 39804 ft | 487 kts | 213° |
| 2026-04-24 09:45 | 9.25169 | 106.96620 | 39804 ft | 487 kts | 213° |
| 2026-04-24 09:46 | 9.19486 | 106.92894 | 39804 ft | 486 kts | 213° |
| 2026-04-24 09:46 | 9.13803 | 106.89172 | 39804 ft | 487 kts | 213° |
| 2026-04-24 09:47 | 9.08119 | 106.85448 | 39804 ft | 487 kts | 213° |
| 2026-04-24 09:47 | 9.02439 | 106.81728 | 39804 ft | 486 kts | 213° |
| 2026-04-24 09:48 | 8.96768 | 106.78013 | 39804 ft | 485 kts | 213° |
| 2026-04-24 09:48 | 8.91093 | 106.74300 | 39805 ft | 485 kts | 213° |
| 2026-04-24 09:49 | 8.85428 | 106.70595 | 39805 ft | 485 kts | 213° |
| 2026-04-24 09:49 | 8.79771 | 106.66894 | 39805 ft | 484 kts | 213° |
| 2026-04-24 09:50 | 8.74383 | 106.62834 | 39796 ft | 483 kts | 224° |
| 2026-04-24 09:50 | 8.70252 | 106.57510 | 39795 ft | 482 kts | 237° |
| 2026-04-24 09:51 | 8.66780 | 106.51710 | 39795 ft | 483 kts | 240° |
| 2026-04-24 09:51 | 8.63414 | 106.45847 | 39795 ft | 482 kts | 240° |
| 2026-04-24 09:52 | 8.60037 | 106.39998 | 39795 ft | 481 kts | 239° |
| 2026-04-24 09:52 | 8.56641 | 106.34176 | 39795 ft | 481 kts | 239° |
| 2026-04-24 09:53 | 8.53231 | 106.28351 | 39795 ft | 480 kts | 239° |
| 2026-04-24 09:53 | 8.49828 | 106.22543 | 39795 ft | 480 kts | 239° |
| 2026-04-24 09:54 | 8.46428 | 106.16740 | 39795 ft | 480 kts | 239° |
| 2026-04-24 09:54 | 8.43024 | 106.10936 | 39795 ft | 479 kts | 239° |
| 2026-04-24 09:55 | 8.40203 | 106.06120 | 39794 ft | 479 kts | 239° |
| 2026-04-24 09:55 | 8.36236 | 105.99348 | 39795 ft | 479 kts | 239° |
| 2026-04-24 09:56 | 8.33418 | 105.94546 | 39795 ft | 479 kts | 239° |
| 2026-04-24 09:56 | 8.30025 | 105.88763 | 39795 ft | 478 kts | 239° |
| 2026-04-24 09:57 | 8.26078 | 105.82041 | 39795 ft | 478 kts | 239° |
| 2026-04-24 09:57 | 8.23239 | 105.77206 | 39795 ft | 478 kts | 239° |
| 2026-04-24 09:58 | 8.19839 | 105.71426 | 39795 ft | 479 kts | 239° |
| 2026-04-24 09:58 | 8.16437 | 105.65647 | 39795 ft | 479 kts | 239° |
| 2026-04-24 09:59 | 8.13063 | 105.59909 | 39795 ft | 478 kts | 239° |
| 2026-04-24 09:59 | 8.09668 | 105.54134 | 39795 ft | 479 kts | 239° |
| 2026-04-24 10:00 | 8.06263 | 105.48346 | 39794 ft | 479 kts | 239° |
| 2026-04-24 10:00 | 8.02859 | 105.42564 | 39795 ft | 479 kts | 239° |
| 2026-04-24 10:01 | 7.99453 | 105.36782 | 39794 ft | 479 kts | 239° |
| 2026-04-24 10:01 | 7.96050 | 105.31004 | 39795 ft | 479 kts | 239° |
| 2026-04-24 10:02 | 7.92654 | 105.25230 | 39795 ft | 478 kts | 239° |
| 2026-04-24 10:02 | 7.89260 | 105.19457 | 39794 ft | 478 kts | 239° |
| 2026-04-24 10:03 | 7.85861 | 105.13689 | 39795 ft | 478 kts | 239° |
| 2026-04-24 10:03 | 7.82464 | 105.07923 | 39795 ft | 478 kts | 239° |
| 2026-04-24 10:04 | 7.79066 | 105.02157 | 39794 ft | 479 kts | 239° |
| 2026-04-24 10:04 | 7.75660 | 104.96380 | 39795 ft | 479 kts | 239° |
| 2026-04-24 10:05 | 7.72260 | 104.90612 | 39794 ft | 479 kts | 239° |
| 2026-04-24 10:05 | 7.68852 | 104.84837 | 39795 ft | 479 kts | 239° |
| 2026-04-24 10:06 | 7.63732 | 104.76170 | 39795 ft | 479 kts | 239° |
| 2026-04-24 10:07 | 7.60323 | 104.70398 | 39794 ft | 479 kts | 239° |
| 2026-04-24 10:07 | 7.56913 | 104.64629 | 39795 ft | 479 kts | 239° |
| 2026-04-24 10:08 | 7.53501 | 104.58856 | 39795 ft | 479 kts | 239° |
| 2026-04-24 10:08 | 7.50091 | 104.53087 | 39795 ft | 479 kts | 239° |
| 2026-04-24 10:09 | 7.46677 | 104.47315 | 39795 ft | 479 kts | 238° |
| 2026-04-24 10:09 | 7.43264 | 104.41547 | 39795 ft | 479 kts | 239° |
| 2026-04-24 10:10 | 7.39845 | 104.35776 | 39795 ft | 479 kts | 238° |
| 2026-04-24 10:10 | 7.36429 | 104.30005 | 39795 ft | 479 kts | 238° |
| 2026-04-24 10:11 | 7.33015 | 104.24239 | 39795 ft | 480 kts | 238° |
| 2026-04-24 10:11 | 7.29597 | 104.18472 | 39796 ft | 479 kts | 238° |
| 2026-04-24 10:12 | 7.26180 | 104.12704 | 39792 ft | 480 kts | 238° |
| 2026-04-24 10:12 | 7.22740 | 104.06940 | 39785 ft | 480 kts | 238° |
| 2026-04-24 10:13 | 7.19287 | 104.01189 | 39785 ft | 480 kts | 238° |
| 2026-04-24 10:13 | 7.15831 | 103.95431 | 39786 ft | 480 kts | 238° |
| 2026-04-24 10:14 | 7.12378 | 103.89674 | 39786 ft | 480 kts | 238° |
| 2026-04-24 10:14 | 7.08921 | 103.83919 | 39786 ft | 480 kts | 238° |
| 2026-04-24 10:15 | 7.05464 | 103.78157 | 39786 ft | 481 kts | 238° |
| 2026-04-24 10:15 | 7.02025 | 103.72427 | 39785 ft | 482 kts | 238° |
| 2026-04-24 10:16 | 6.98562 | 103.66658 | 39786 ft | 481 kts | 238° |
| 2026-04-24 10:16 | 6.95099 | 103.60893 | 39783 ft | 482 kts | 238° |
| 2026-04-24 10:17 | 6.91640 | 103.55130 | 39776 ft | 481 kts | 238° |
| 2026-04-24 10:17 | 6.88210 | 103.49343 | 39776 ft | 481 kts | 238° |
| 2026-04-24 10:18 | 6.84786 | 103.43551 | 39776 ft | 482 kts | 238° |
| 2026-04-24 10:18 | 6.81353 | 103.37758 | 39776 ft | 482 kts | 238° |
| 2026-04-24 10:19 | 6.77913 | 103.31966 | 39776 ft | 482 kts | 238° |
| 2026-04-24 10:19 | 6.74474 | 103.26178 | 39776 ft | 482 kts | 238° |
| 2026-04-24 10:20 | 6.71032 | 103.20385 | 39776 ft | 482 kts | 238° |
| 2026-04-24 10:20 | 6.67590 | 103.14598 | 39776 ft | 482 kts | 238° |
| 2026-04-24 10:21 | 6.64148 | 103.08815 | 39776 ft | 482 kts | 238° |
| 2026-04-24 10:21 | 6.60706 | 103.03025 | 39785 ft | 482 kts | 238° |
| 2026-04-24 10:22 | 6.57263 | 102.97234 | 39786 ft | 483 kts | 238° |
| 2026-04-24 10:22 | 6.53818 | 102.91446 | 39786 ft | 482 kts | 238° |
| 2026-04-24 10:23 | 6.50370 | 102.85661 | 39785 ft | 482 kts | 238° |
| 2026-04-24 10:23 | 6.46916 | 102.79879 | 39786 ft | 482 kts | 238° |
| 2026-04-24 10:24 | 6.43344 | 102.74173 | 39786 ft | 482 kts | 237° |
| 2026-04-24 10:24 | 6.39734 | 102.68508 | 39786 ft | 482 kts | 237° |
| 2026-04-24 10:25 | 6.36121 | 102.62807 | 39785 ft | 482 kts | 237° |
| 2026-04-24 10:25 | 6.32530 | 102.57114 | 39780 ft | 482 kts | 237° |
| 2026-04-24 10:26 | 6.28942 | 102.51417 | 39776 ft | 482 kts | 237° |
| 2026-04-24 10:26 | 6.25355 | 102.45720 | 39776 ft | 482 kts | 237° |
| 2026-04-24 10:27 | 6.21766 | 102.40025 | 39777 ft | 482 kts | 237° |
| 2026-04-24 10:27 | 6.18108 | 102.34376 | 39776 ft | 482 kts | 232° |
| 2026-04-24 10:28 | 6.13407 | 102.29629 | 39777 ft | 480 kts | 215° |
| 2026-04-24 10:28 | 6.07905 | 102.25835 | 39776 ft | 480 kts | 212° |
| 2026-04-24 10:29 | 6.02284 | 102.22217 | 39645 ft | 480 kts | 212° |
| 2026-04-24 10:29 | 5.99469 | 102.20417 | 39397 ft | 479 kts | 212° |
| 2026-04-24 10:29 | 5.96659 | 102.18611 | 39153 ft | 479 kts | 212° |
| 2026-04-24 10:29 | 5.93858 | 102.16802 | 38818 ft | 477 kts | 212° |
| 2026-04-24 10:30 | 5.91080 | 102.15003 | 38257 ft | 474 kts | 212° |
| 2026-04-24 10:30 | 5.88311 | 102.13205 | 37631 ft | 474 kts | 212° |
| 2026-04-24 10:30 | 5.85542 | 102.11406 | 36981 ft | 474 kts | 212° |
| 2026-04-24 10:30 | 5.82878 | 102.09675 | 36346 ft | 474 kts | 212° |
| 2026-04-24 10:31 | 5.80110 | 102.07877 | 35671 ft | 474 kts | 212° |
| 2026-04-24 10:31 | 5.77338 | 102.06076 | 34983 ft | 475 kts | 212° |
| 2026-04-24 10:31 | 5.74561 | 102.04274 | 34245 ft | 476 kts | 212° |
| 2026-04-24 10:31 | 5.71773 | 102.02463 | 33451 ft | 479 kts | 212° |
| 2026-04-24 10:32 | 5.68972 | 102.00645 | 32645 ft | 481 kts | 212° |
| 2026-04-24 10:32 | 5.66155 | 101.98816 | 31808 ft | 483 kts | 212° |
| 2026-04-24 10:32 | 5.63384 | 101.96900 | 30930 ft | 485 kts | 218° |
| 2026-04-24 10:32 | 5.60967 | 101.94521 | 30000 ft | 489 kts | 231° |
| 2026-04-24 10:33 | 5.59136 | 101.91642 | 29060 ft | 492 kts | 244° |
| 2026-04-24 10:33 | 5.58058 | 101.88388 | 28274 ft | 492 kts | 257° |
| 2026-04-24 10:33 | 5.57394 | 101.85033 | 27618 ft | 488 kts | 259° |
| 2026-04-24 10:33 | 5.56787 | 101.81695 | 26975 ft | 485 kts | 259° |
| 2026-04-24 10:34 | 5.56184 | 101.78374 | 26310 ft | 482 kts | 259° |
| 2026-04-24 10:34 | 5.55590 | 101.75122 | 25664 ft | 479 kts | 259° |
| 2026-04-24 10:34 | 5.54990 | 101.71848 | 25000 ft | 475 kts | 259° |
| 2026-04-24 10:34 | 5.54392 | 101.68597 | 24367 ft | 472 kts | 259° |
| 2026-04-24 10:35 | 5.53798 | 101.65368 | 23734 ft | 469 kts | 259° |
| 2026-04-24 10:35 | 5.53207 | 101.62157 | 23081 ft | 466 kts | 259° |
| 2026-04-24 10:35 | 5.52619 | 101.58971 | 22442 ft | 463 kts | 259° |
| 2026-04-24 10:35 | 5.52036 | 101.55807 | 21803 ft | 460 kts | 259° |
| 2026-04-24 10:36 | 5.51455 | 101.52662 | 21158 ft | 457 kts | 259° |
| 2026-04-24 10:36 | 5.50877 | 101.49536 | 20518 ft | 454 kts | 258° |
| 2026-04-24 10:36 | 5.50297 | 101.46389 | 19872 ft | 451 kts | 258° |
| 2026-04-24 10:36 | 5.49727 | 101.43307 | 19221 ft | 448 kts | 258° |
| 2026-04-24 10:37 | 5.49169 | 101.40285 | 18584 ft | 444 kts | 258° |
| 2026-04-24 10:37 | 5.48608 | 101.37247 | 17936 ft | 441 kts | 258° |
| 2026-04-24 10:37 | 5.48045 | 101.34196 | 17257 ft | 437 kts | 258° |
| 2026-04-24 10:37 | 5.47491 | 101.31208 | 16600 ft | 433 kts | 258° |
| 2026-04-24 10:38 | 5.46943 | 101.28247 | 15940 ft | 430 kts | 258° |
| 2026-04-24 10:38 | 5.46399 | 101.25310 | 15282 ft | 426 kts | 258° |
| 2026-04-24 10:38 | 5.45859 | 101.22399 | 14634 ft | 422 kts | 258° |
| 2026-04-24 10:38 | 5.45326 | 101.19522 | 13967 ft | 418 kts | 258° |
| 2026-04-24 10:39 | 5.44798 | 101.16674 | 13316 ft | 413 kts | 258° |
| 2026-04-24 10:39 | 5.44452 | 101.14806 | 12883 ft | 410 kts | 258° |
| 2026-04-24 10:39 | 5.43933 | 101.12007 | 12232 ft | 405 kts | 258° |
| 2026-04-24 10:39 | 5.43421 | 101.09244 | 11589 ft | 401 kts | 258° |
| 2026-04-24 10:40 | 5.42751 | 101.05632 | 10923 ft | 394 kts | 259° |
| 2026-04-24 10:40 | 5.42253 | 101.02961 | 10734 ft | 382 kts | 259° |
| 2026-04-24 10:40 | 5.41776 | 101.00388 | 10496 ft | 368 kts | 259° |
| 2026-04-24 10:40 | 5.41464 | 100.98704 | 10350 ft | 358 kts | 259° |
| 2026-04-24 10:41 | 5.40880 | 100.95544 | 10122 ft | 338 kts | 259° |
| 2026-04-24 10:41 | 5.40592 | 100.93999 | 10043 ft | 328 kts | 259° |
| 2026-04-24 10:41 | 5.40183 | 100.91804 | 9912 ft | 313 kts | 259° |
| 2026-04-24 10:41 | 5.39793 | 100.89701 | 9770 ft | 300 kts | 259° |
| 2026-04-24 10:42 | 5.39415 | 100.87668 | 9589 ft | 296 kts | 259° |
| 2026-04-24 10:42 | 5.39035 | 100.85628 | 9328 ft | 298 kts | 260° |
| 2026-04-24 10:42 | 5.38655 | 100.83584 | 9000 ft | 297 kts | 260° |
| 2026-04-24 10:42 | 5.38278 | 100.81554 | 8673 ft | 295 kts | 260° |
| 2026-04-24 10:43 | 5.37902 | 100.79536 | 8357 ft | 293 kts | 260° |
| 2026-04-24 10:43 | 5.37614 | 100.77523 | 8039 ft | 291 kts | 269° |
| 2026-04-24 10:43 | 5.37831 | 100.75531 | 7742 ft | 286 kts | 282° |
| 2026-04-24 10:43 | 5.38276 | 100.73582 | 7445 ft | 287 kts | 284° |
| 2026-04-24 10:44 | 5.38744 | 100.71640 | 7142 ft | 286 kts | 284° |
| 2026-04-24 10:44 | 5.39207 | 100.69704 | 6857 ft | 283 kts | 284° |
| 2026-04-24 10:44 | 5.39659 | 100.67787 | 6564 ft | 282 kts | 284° |
| 2026-04-24 10:44 | 5.40108 | 100.65874 | 6267 ft | 281 kts | 284° |
| 2026-04-24 10:45 | 5.40552 | 100.63967 | 5974 ft | 280 kts | 284° |
| 2026-04-24 10:45 | 5.40994 | 100.62063 | 5672 ft | 279 kts | 284° |
| 2026-04-24 10:45 | 5.41433 | 100.60176 | 5396 ft | 277 kts | 283° |
| 2026-04-24 10:45 | 5.41877 | 100.58293 | 5106 ft | 277 kts | 284° |
| 2026-04-24 10:46 | 5.42318 | 100.56413 | 4836 ft | 277 kts | 284° |
| 2026-04-24 10:46 | 5.42780 | 100.54560 | 4535 ft | 277 kts | 288° |
| 2026-04-24 10:46 | 5.43436 | 100.52730 | 4247 ft | 274 kts | 292° |
| 2026-04-24 10:46 | 5.44146 | 100.50960 | 3966 ft | 273 kts | 292° |
| 2026-04-24 10:47 | 5.44859 | 100.49196 | 3685 ft | 272 kts | 292° |
| 2026-04-24 10:47 | 5.45572 | 100.47435 | 3444 ft | 273 kts | 292° |
| 2026-04-24 10:47 | 5.46233 | 100.45661 | 3148 ft | 267 kts | 285° |
| 2026-04-24 10:47 | 5.46346 | 100.43882 | 2860 ft | 248 kts | 259° |
| 2026-04-24 10:48 | 5.45709 | 100.42357 | 2601 ft | 231 kts | 233° |
| 2026-04-24 10:48 | 5.44659 | 100.41229 | 2422 ft | 212 kts | 223° |
| 2026-04-24 10:48 | 5.43622 | 100.40291 | 2352 ft | 191 kts | 222° |
| 2026-04-24 10:48 | 5.42669 | 100.39442 | 2258 ft | 176 kts | 222° |
| 2026-04-24 10:49 | 5.41794 | 100.38658 | 2175 ft | 165 kts | 223° |
| 2026-04-24 10:49 | 5.40939 | 100.37885 | 2110 ft | 165 kts | 223° |
| 2026-04-24 10:49 | 5.40091 | 100.37113 | 2033 ft | 164 kts | 224° |
| 2026-04-24 10:49 | 5.39250 | 100.36351 | 1978 ft | 161 kts | 223° |
| 2026-04-24 10:50 | 5.38442 | 100.35616 | 1875 ft | 152 kts | 224° |
| 2026-04-24 10:50 | 5.37684 | 100.34922 | 1751 ft | 146 kts | 224° |
| 2026-04-24 10:50 | 5.36935 | 100.34241 | 1561 ft | 145 kts | 224° |
| 2026-04-24 10:50 | 5.36192 | 100.33564 | 1385 ft | 144 kts | 224° |
| 2026-04-24 10:51 | 5.35453 | 100.32890 | 1206 ft | 143 kts | 223° |
| 2026-04-24 10:51 | 5.34712 | 100.32221 | 1018 ft | 144 kts | 223° |
| 2026-04-24 10:51 | 5.33965 | 100.31559 | 828 ft | 142 kts | 222° |
| 2026-04-24 10:51 | 5.33239 | 100.30905 | 688 ft | 142 kts | 224° |
| 2026-04-24 10:52 | 5.32514 | 100.30231 | 546 ft | 143 kts | 223° |
| 2026-04-24 10:52 | 5.31774 | 100.29565 | 327 ft | 142 kts | 224° |
| 2026-04-24 10:52 | 5.31051 | 100.28899 | 133 ft | 141 kts | 222° |
| 2026-04-24 10:52 | 5.30337 | 100.28243 | 31 ft | 135 kts | 223° |
| 2026-04-24 10:53 | 5.29741 | 100.27710 | 25 ft | 97 kts | 222° |
| 2026-04-24 10:53 | 5.29337 | 100.27343 | 25 ft | 60 kts | 221° |
| 2026-04-24 10:53 | 5.29128 | 100.27155 | 26 ft | 29 kts | 222° |
| 2026-04-24 10:53 | 5.29056 | 100.27081 | 27 ft | 7 kts | 250° |
| 2026-04-24 10:54 | 5.29074 | 100.27039 | 27 ft | 8 kts | 305° |
| 2026-04-24 10:54 | 5.29116 | 100.26988 | 27 ft | 11 kts | 311° |
| 2026-04-24 10:54 | 5.29175 | 100.26922 | 25 ft | 14 kts | 312° |
| 2026-04-24 10:54 | 5.29246 | 100.26844 | 25 ft | 15 kts | 311° |
| 2026-04-24 10:55 | 5.29294 | 100.26789 | 27 ft | 8 kts | 311° |
| 2026-04-24 10:55 | 5.29318 | 100.26761 | 26 ft | 4 kts | 311° |
| 2026-04-24 10:55 | 5.29321 | 100.26757 | 25 ft | 0 kts | 311° |